createdAt,value
2019-04-21T00:00:35.524Z,13.22
2019-04-21T00:03:22.981Z,12.68
2019-04-21T00:06:03.243Z,13.55
2019-04-21T00:08:54.101Z,13.05
2019-04-21T00:11:09.374Z,10.63
2019-04-21T00:13:33.959Z,9.98
2019-04-21T00:15:55.015Z,9.70
2019-04-21T00:18:32.233Z,9.48
2019-04-21T00:21:08.272Z,8.95
2019-04-21T00:23:41.268Z,9.33
2019-04-21T00:26:07.549Z,10.48
2019-04-21T00:28:59.478Z,10.28
2019-04-21T00:31:19.309Z,9.55
2019-04-21T00:33:37.294Z,10.03
2019-04-21T00:36:11.264Z,9.80
2019-04-21T00:39:06.676Z,9.13
2019-04-21T00:41:29.529Z,10.10
2019-04-21T00:43:50.923Z,9.68
2019-04-21T00:46:22.991Z,9.58
2019-04-21T00:49:00.330Z,9.05
2019-04-21T00:51:40.858Z,9.25
2019-04-21T00:54:11.870Z,8.58
2019-04-21T00:56:36.521Z,8.88
2019-04-21T00:59:11.703Z,7.97
2019-04-21T01:01:38.226Z,8.55
2019-04-21T01:04:09.694Z,8.58
2019-04-21T01:06:42.735Z,8.05
2019-04-21T01:09:09.396Z,8.78
2019-04-21T01:11:47.360Z,8.80
2019-04-21T01:14:13.187Z,9.28
2019-04-21T01:16:45.905Z,9.15
2019-04-21T01:19:13.936Z,9.43
2019-04-21T01:21:22.615Z,9.23
2019-04-21T01:23:55.646Z,8.95
2019-04-21T01:26:32.879Z,8.50
2019-04-21T01:29:12.091Z,9.75
2019-04-21T01:31:42.256Z,9.28
2019-04-21T01:34:19.111Z,8.98
2019-04-21T01:36:47.488Z,9.28
2019-04-21T01:39:22.602Z,9.33
2019-04-21T01:41:55.419Z,9.48
2019-04-21T01:44:25.753Z,9.15
2019-04-21T01:46:45.733Z,9.18
2019-04-21T01:49:11.567Z,9.75
2019-04-21T01:52:15.169Z,10.05
2019-04-21T01:54:48.076Z,11.10
2019-04-21T01:57:17.647Z,9.63
2019-04-21T01:59:43.884Z,10.23
2019-04-21T02:02:28.074Z,10.03
2019-04-21T02:04:57.567Z,9.30
2019-04-21T02:07:27.037Z,9.58
2019-04-21T02:10:00.824Z,8.88
2019-04-21T02:12:25.285Z,9.38
2019-04-21T02:15:17.097Z,8.35
2019-04-21T02:17:29.230Z,8.15
2019-04-21T02:19:56.151Z,8.30
2019-04-21T02:22:41.550Z,8.93
2019-04-21T02:25:00.976Z,8.10
2019-04-21T02:27:32.527Z,8.80
2019-04-21T02:30:12.103Z,9.58
2019-04-21T02:32:47.999Z,8.80
2019-04-21T02:35:25.534Z,9.20
2019-04-21T02:37:54.960Z,8.93
2019-04-21T02:43:07.239Z,9.03
2019-04-21T02:47:53.448Z,8.80
2019-04-21T02:55:22.176Z,8.68
2019-04-21T02:57:59.526Z,8.80
2019-04-21T03:05:50.776Z,8.68
2019-04-21T03:08:40.469Z,8.53
2019-04-21T03:11:06.546Z,8.35
2019-04-21T03:13:31.407Z,8.80
2019-04-21T03:16:11.843Z,8.13
2019-04-21T03:23:30.229Z,9.33
2019-04-21T03:28:49.521Z,8.45
2019-04-21T03:31:19.739Z,8.63
2019-04-21T03:38:36.962Z,9.15
2019-04-21T03:41:04.752Z,8.23
2019-04-21T03:43:34.848Z,8.90
2019-04-21T03:46:24.716Z,9.15
2019-04-21T03:51:15.986Z,9.03
2019-04-21T03:53:37.830Z,8.95
2019-04-21T03:56:14.743Z,8.70
2019-04-21T03:58:54.337Z,8.38
2019-04-21T04:06:45.022Z,9.08
2019-04-21T04:11:47.392Z,8.65
2019-04-21T04:16:50.337Z,9.05
2019-04-21T04:21:47.807Z,8.63
2019-04-21T04:24:22.338Z,8.25
2019-04-21T04:31:44.058Z,9.35
2019-04-21T04:34:21.960Z,9.63
2019-04-21T04:39:36.623Z,9.38
2019-04-21T04:42:12.350Z,9.08
2019-04-21T04:45:00.776Z,9.20
2019-04-21T04:49:47.596Z,9.88
2019-04-21T04:57:29.061Z,9.45
2019-04-21T04:59:53.956Z,9.45
2019-04-21T05:07:27.451Z,9.98
2019-04-21T05:09:46.598Z,9.68
2019-04-21T05:12:11.296Z,9.98
2019-04-21T05:14:46.728Z,10.05
2019-04-21T05:17:30.645Z,9.40
2019-04-21T05:20:07.234Z,8.78
2019-04-21T05:22:22.225Z,9.90
2019-04-21T05:24:41.907Z,9.95
2019-04-21T05:27:08.652Z,10.63
2019-04-21T05:29:53.956Z,10.53
2019-04-21T05:32:29.879Z,9.80
2019-04-21T05:34:55.701Z,9.03
2019-04-21T05:37:50.457Z,10.00
2019-04-21T05:40:15.817Z,9.93
2019-04-21T05:42:47.595Z,8.45
2019-04-21T05:45:24.180Z,9.65
2019-04-21T05:48:04.752Z,9.63
2019-04-21T05:50:30.571Z,9.35
2019-04-21T05:52:57.553Z,8.73
2019-04-21T05:55:38.543Z,9.43
2019-04-21T05:58:03.937Z,9.13
2019-04-21T06:00:55.938Z,9.68
2019-04-21T06:03:11.526Z,9.75
2019-04-21T06:05:48.096Z,9.88
2019-04-21T06:08:08.173Z,9.15
2019-04-21T06:10:43.596Z,9.63
2019-04-21T06:13:17.045Z,9.23
2019-04-21T06:15:45.570Z,9.03
2019-04-21T06:18:13.243Z,9.40
2019-04-21T06:20:40.602Z,9.10
2019-04-21T06:23:15.574Z,8.13
2019-04-21T06:25:55.352Z,8.58
2019-04-21T06:28:19.257Z,9.25
2019-04-21T06:33:19.658Z,9.88
2019-04-21T06:36:20.094Z,10.00
2019-04-21T06:38:54.480Z,8.38
2019-04-21T06:41:13.517Z,9.18
2019-04-21T06:43:48.472Z,9.25
2019-04-21T06:46:20.009Z,9.55
2019-04-21T06:48:53.828Z,8.93
2019-04-21T06:51:24.064Z,9.73
2019-04-21T06:53:52.479Z,9.03
2019-04-21T06:56:21.811Z,9.23
2019-04-21T06:58:51.040Z,9.08
2019-04-21T07:01:24.198Z,8.20
2019-04-21T07:04:01.684Z,8.85
2019-04-21T07:06:26.118Z,9.23
2019-04-21T07:09:07.437Z,8.55
2019-04-21T07:11:21.402Z,9.08
2019-04-21T07:14:05.729Z,7.65
2019-04-21T07:16:32.039Z,7.35
2019-04-21T07:19:07.145Z,7.42
2019-04-21T07:21:29.962Z,7.97
2019-04-21T07:27:26.982Z,7.17
2019-04-21T07:29:55.591Z,6.35
2019-04-21T07:32:22.170Z,7.15
2019-04-21T07:34:53.844Z,7.15
2019-04-21T07:37:25.624Z,7.65
2019-04-21T07:39:51.231Z,6.95
2019-04-21T07:42:18.672Z,7.87
2019-04-21T07:45:13.355Z,6.17
2019-04-21T07:48:13.789Z,6.30
2019-04-21T07:50:54.384Z,6.67
2019-04-21T07:53:36.754Z,5.20
2019-04-21T07:55:39.244Z,6.42
2019-04-21T07:58:38.675Z,6.92
2019-04-21T08:01:18.429Z,7.20
2019-04-21T08:03:36.868Z,6.00
2019-04-21T08:06:05.009Z,6.30
2019-04-21T08:08:33.733Z,6.53
2019-04-21T08:11:02.970Z,6.60
2019-04-21T08:13:39.219Z,7.05
2019-04-21T08:16:10.986Z,7.78
2019-04-21T08:18:40.005Z,7.87
2019-04-21T08:21:05.763Z,7.10
2019-04-21T08:23:43.423Z,7.08
2019-04-21T08:26:34.519Z,8.48
2019-04-21T08:28:45.726Z,8.38
2019-04-21T08:31:16.877Z,8.28
2019-04-21T08:38:48.246Z,8.00
2019-04-21T08:41:18.665Z,8.80
2019-04-21T08:43:54.618Z,7.78
2019-04-21T08:46:27.276Z,8.38
2019-04-21T08:48:57.945Z,8.30
2019-04-21T08:51:40.802Z,8.90
2019-04-21T08:54:17.077Z,8.70
2019-04-21T08:56:27.751Z,9.48
2019-04-21T08:59:25.247Z,8.70
2019-04-21T09:01:53.199Z,6.92
2019-04-21T09:04:29.072Z,7.83
2019-04-21T09:07:05.166Z,8.43
2019-04-21T09:09:31.980Z,8.50
2019-04-21T09:12:01.647Z,8.50
2019-04-21T09:14:33.376Z,8.90
2019-04-21T09:16:56.265Z,8.85
2019-04-21T09:19:47.061Z,8.33
2019-04-21T09:22:17.898Z,8.05
2019-04-21T09:24:39.856Z,8.78
2019-04-21T09:27:03.479Z,10.00
2019-04-21T09:29:28.326Z,9.95
2019-04-21T09:31:50.267Z,9.70
2019-04-21T09:34:27.137Z,9.30
2019-04-21T09:36:54.879Z,9.95
2019-04-21T09:39:25.548Z,11.22
2019-04-21T09:41:57.086Z,10.35
2019-04-21T09:44:29.032Z,10.78
2019-04-21T09:46:58.609Z,10.13
2019-04-21T09:49:30.920Z,8.88
2019-04-21T09:51:57.669Z,9.68
2019-04-21T09:54:31.249Z,9.65
2019-04-21T09:57:03.273Z,9.98
2019-04-21T09:59:33.572Z,8.13
2019-04-21T10:02:09.731Z,8.33
2019-04-21T10:04:31.112Z,8.75
2019-04-21T10:07:00.480Z,8.80
2019-04-21T10:09:30.979Z,8.05
2019-04-21T10:12:00.805Z,6.97
2019-04-21T10:14:30.954Z,7.12
2019-04-21T10:17:19.601Z,8.15
2019-04-21T10:19:49.069Z,7.45
2019-04-21T10:22:19.009Z,7.87
2019-04-21T10:24:48.856Z,8.15
2019-04-21T10:27:19.033Z,7.28
2019-04-21T10:29:49.073Z,7.80
2019-04-21T10:32:23.189Z,6.90
2019-04-21T10:34:50.095Z,6.90
2019-04-21T10:37:19.276Z,6.65
2019-04-21T10:39:49.554Z,7.08
2019-04-21T10:42:19.516Z,6.85
2019-04-21T10:44:49.405Z,6.85
2019-04-21T10:47:18.702Z,6.60
2019-04-21T10:49:48.657Z,6.00
2019-04-21T10:52:19.574Z,5.83
2019-04-21T10:55:12.876Z,6.58
2019-04-21T10:57:24.524Z,7.10
2019-04-21T10:59:55.897Z,6.55
2019-04-21T11:02:35.224Z,6.00
2019-04-21T11:05:06.889Z,7.10
2019-04-21T11:07:58.929Z,7.12
2019-04-21T11:10:16.018Z,5.95
2019-04-21T11:12:47.634Z,5.60
2019-04-21T11:15:17.120Z,6.22
2019-04-21T11:17:47.312Z,5.97
2019-04-21T11:20:17.347Z,6.35
2019-04-21T11:22:47.311Z,5.55
2019-04-21T11:25:17.784Z,5.67
2019-04-21T11:27:47.148Z,6.58
2019-04-21T11:30:17.541Z,6.70
2019-04-21T11:32:49.095Z,6.30
2019-04-21T11:35:19.188Z,6.22
2019-04-21T11:37:50.311Z,5.83
2019-04-21T11:40:21.620Z,6.15
2019-04-21T11:42:51.580Z,6.58
2019-04-21T11:45:28.352Z,6.28
2019-04-21T11:48:14.488Z,6.12
2019-04-21T11:50:43.704Z,6.30
2019-04-21T11:53:12.967Z,5.97
2019-04-21T11:55:46.391Z,6.50
2019-04-21T11:58:14.064Z,6.30
2019-04-21T12:00:45.393Z,5.85
2019-04-21T12:03:15.692Z,5.83
2019-04-21T12:05:45.569Z,4.90
2019-04-21T12:08:23.073Z,5.53
2019-04-21T12:10:45.643Z,6.70
2019-04-21T12:13:16.162Z,6.37
2019-04-21T12:15:45.502Z,7.33
2019-04-21T12:18:15.524Z,6.05
2019-04-21T12:20:45.171Z,5.45
2019-04-21T12:23:14.511Z,5.60
2019-04-21T12:25:45.415Z,6.20
2019-04-21T12:28:14.591Z,6.00
2019-04-21T12:30:45.263Z,5.95
2019-04-21T12:33:20.216Z,6.70
2019-04-21T12:35:49.796Z,6.35
2019-04-21T12:38:30.110Z,5.75
2019-04-21T12:40:50.780Z,5.53
2019-04-21T12:43:20.999Z,5.45
2019-04-21T12:45:51.529Z,5.83
2019-04-21T12:48:22.163Z,5.75
2019-04-21T12:50:51.961Z,5.50
2019-04-21T12:53:21.489Z,4.87
2019-04-21T12:55:51.749Z,6.20
2019-04-21T12:58:21.465Z,4.87
2019-04-21T13:00:51.655Z,5.37
2019-04-21T13:03:23.318Z,5.20
2019-04-21T13:05:51.877Z,4.53
2019-04-21T13:08:21.767Z,5.22
2019-04-21T13:10:52.007Z,5.40
2019-04-21T13:13:22.066Z,4.80
2019-04-21T13:15:51.745Z,4.72
2019-04-21T13:18:22.671Z,4.42
2019-04-21T13:20:51.983Z,5.15
2019-04-21T13:23:21.362Z,4.92
2019-04-21T13:25:51.674Z,4.42
2019-04-21T13:28:22.781Z,4.72
2019-04-21T13:30:52.217Z,5.12
2019-04-21T13:33:22.959Z,4.20
2019-04-21T13:35:53.118Z,4.70
2019-04-21T13:38:30.093Z,4.58
2019-04-21T13:41:14.971Z,4.78
2019-04-21T13:43:30.769Z,4.42
2019-04-21T13:46:01.730Z,4.03
2019-04-21T13:48:32.650Z,4.62
2019-04-21T13:51:02.027Z,4.60
2019-04-21T13:53:33.119Z,3.77
2019-04-21T13:56:02.650Z,3.60
2019-04-21T13:58:34.603Z,3.67
2019-04-21T14:01:05.660Z,3.27
2019-04-21T14:03:35.464Z,3.85
2019-04-21T14:06:04.828Z,3.47
2019-04-21T14:08:50.346Z,3.35
2019-04-21T14:11:19.831Z,3.83
2019-04-21T14:13:50.421Z,3.85
2019-04-21T14:16:20.313Z,3.83
2019-04-21T14:18:49.741Z,3.37
2019-04-21T14:21:21.112Z,3.50
2019-04-21T14:23:52.478Z,3.10
2019-04-21T14:26:22.385Z,2.80
2019-04-21T14:28:52.812Z,3.25
2019-04-21T14:31:22.188Z,3.80
2019-04-21T14:33:52.129Z,3.77
2019-04-21T14:36:21.323Z,3.30
2019-04-21T14:38:50.585Z,3.27
2019-04-21T14:41:20.046Z,3.62
2019-04-21T14:43:50.153Z,3.10
2019-04-21T14:46:21.521Z,3.37
2019-04-21T14:49:11.100Z,3.77
2019-04-21T14:51:45.445Z,3.10
2019-04-21T14:54:20.621Z,3.35
2019-04-21T14:56:51.038Z,3.50
2019-04-21T14:59:21.374Z,3.20
2019-04-21T15:01:52.109Z,3.37
2019-04-21T15:04:22.451Z,3.05
2019-04-21T15:06:52.432Z,2.83
2019-04-21T15:09:22.957Z,3.05
2019-04-21T15:11:52.215Z,2.90
2019-04-21T15:14:22.482Z,2.65
2019-04-21T15:16:51.658Z,2.75
2019-04-21T15:19:22.511Z,2.77
2019-04-21T15:21:52.404Z,2.37
2019-04-21T15:24:22.478Z,3.08
2019-04-21T15:26:54.657Z,2.62
2019-04-21T15:29:24.706Z,2.17
2019-04-21T15:31:54.639Z,2.35
2019-04-21T15:34:25.919Z,2.40
2019-04-21T15:36:55.898Z,2.95
2019-04-21T15:39:25.741Z,2.47
2019-04-21T15:41:56.719Z,2.40
2019-04-21T15:44:27.098Z,2.27
2019-04-21T15:46:57.645Z,2.87
2019-04-21T15:49:40.534Z,2.98
2019-04-21T15:52:00.128Z,3.22
2019-04-21T15:54:29.492Z,2.40
2019-04-21T15:57:02.842Z,2.40
2019-04-21T15:59:46.557Z,2.87
2019-04-21T16:02:34.835Z,2.50
2019-04-21T16:05:06.598Z,2.67
2019-04-21T16:07:36.223Z,2.55
2019-04-21T16:10:08.680Z,2.42
2019-04-21T16:12:37.895Z,2.30
2019-04-21T16:15:08.446Z,2.77
2019-04-21T16:17:39.269Z,2.02
2019-04-21T16:20:10.164Z,2.37
2019-04-21T16:22:39.572Z,2.50
2019-04-21T16:25:10.616Z,2.22
2019-04-21T16:27:41.135Z,2.40
2019-04-21T16:30:12.167Z,2.40
2019-04-21T16:32:42.042Z,2.50
2019-04-21T16:35:14.352Z,2.62
2019-04-21T16:37:43.555Z,2.75
2019-04-21T16:40:13.757Z,2.50
2019-04-21T16:42:43.021Z,2.02
2019-04-21T16:45:12.747Z,2.20
2019-04-21T16:47:42.181Z,2.20
2019-04-21T16:50:13.929Z,2.30
2019-04-21T16:52:46.200Z,2.20
2019-04-21T16:55:26.776Z,2.30
2019-04-21T16:58:15.276Z,2.42
2019-04-21T17:00:54.725Z,2.12
2019-04-21T17:03:18.749Z,2.00
2019-04-21T17:05:48.282Z,2.35
2019-04-21T17:08:17.787Z,2.72
2019-04-21T17:10:59.159Z,2.40
2019-04-21T17:13:18.299Z,2.42
2019-04-21T17:16:09.706Z,2.35
2019-04-21T17:18:33.089Z,2.52
2019-04-21T17:20:55.371Z,2.45
2019-04-21T17:23:21.742Z,2.10
2019-04-21T17:25:51.060Z,2.35
2019-04-21T17:28:21.585Z,2.55
2019-04-21T17:30:50.976Z,2.65
2019-04-21T17:33:23.289Z,2.22
2019-04-21T17:35:51.164Z,2.75
2019-04-21T17:38:21.791Z,2.35
2019-04-21T17:40:51.753Z,2.67
2019-04-21T17:43:21.783Z,2.60
2019-04-21T17:45:51.181Z,2.95
2019-04-21T17:48:21.886Z,3.22
2019-04-21T17:50:59.170Z,2.60
2019-04-21T17:53:51.978Z,2.72
2019-04-21T17:56:47.827Z,3.00
2019-04-21T17:59:15.204Z,3.10
2019-04-21T18:01:45.045Z,3.15
2019-04-21T18:04:15.490Z,3.58
2019-04-21T18:06:51.603Z,3.05
2019-04-21T18:09:28.598Z,3.08
2019-04-21T18:11:57.846Z,3.20
2019-04-21T18:14:11.423Z,3.02
2019-04-21T18:16:46.236Z,3.47
2019-04-21T18:19:12.991Z,2.98
2019-04-21T18:21:54.134Z,3.00
2019-04-21T18:24:22.637Z,3.85
2019-04-21T18:26:56.868Z,3.10
2019-04-21T18:29:23.457Z,3.35
2019-04-21T18:31:54.214Z,3.17
2019-04-21T18:34:44.011Z,3.62
2019-04-21T18:37:14.201Z,3.65
2019-04-21T18:39:59.725Z,3.62
2019-04-21T18:43:05.532Z,3.87
2019-04-21T18:48:03.379Z,4.03
2019-04-21T18:50:41.698Z,4.15
2019-04-21T18:53:17.017Z,4.03
2019-04-21T18:55:43.252Z,3.52
2019-04-21T18:58:13.410Z,4.00
2019-04-21T19:00:43.659Z,4.10
2019-04-21T19:03:13.690Z,4.90
2019-04-21T19:05:47.784Z,4.65
2019-04-21T19:08:27.885Z,4.33
2019-04-21T19:11:04.057Z,4.80
2019-04-21T19:13:44.400Z,4.08
2019-04-21T19:19:04.413Z,3.58
2019-04-21T19:21:05.395Z,4.25
2019-04-21T19:23:45.260Z,4.12
2019-04-21T19:26:21.958Z,3.70
2019-04-21T19:28:49.746Z,3.92
2019-04-21T19:31:17.088Z,3.67
2019-04-21T19:33:36.138Z,4.17
2019-04-21T19:35:55.353Z,4.10
2019-04-21T19:38:35.272Z,3.77
2019-04-21T19:41:12.786Z,4.08
2019-04-21T19:43:48.899Z,3.95
2019-04-21T19:46:15.695Z,4.30
2019-04-21T19:48:56.573Z,3.42
2019-04-21T19:51:15.036Z,3.30
2019-04-21T19:53:44.895Z,3.42
2019-04-21T19:56:01.385Z,3.58
2019-04-21T19:58:36.091Z,3.65
2019-04-21T20:01:01.613Z,3.95
2019-04-21T20:03:32.479Z,3.72
2019-04-21T20:06:11.816Z,4.60
2019-04-21T20:08:43.451Z,4.72
2019-04-21T20:11:19.096Z,5.10
2019-04-21T20:14:03.230Z,4.50
2019-04-21T20:16:24.673Z,4.72
2019-04-21T20:18:42.594Z,5.10
2019-04-21T20:21:08.018Z,4.90
2019-04-21T20:23:39.514Z,5.17
2019-04-21T20:26:10.004Z,4.87
2019-04-21T20:28:49.271Z,4.50
2019-04-21T20:31:23.672Z,4.67
2019-04-21T20:34:03.526Z,4.42
2019-04-21T20:36:35.423Z,4.42
2019-04-21T20:38:51.521Z,5.40
2019-04-21T20:41:27.312Z,4.90
2019-04-21T20:44:01.047Z,5.03
2019-04-21T20:46:35.388Z,6.08
2019-04-21T20:49:00.180Z,5.95
2019-04-21T20:51:34.088Z,5.72
2019-04-21T20:54:02.963Z,5.83
2019-04-21T20:56:39.500Z,5.33
2019-04-21T20:59:11.300Z,5.62
2019-04-21T21:01:41.506Z,5.55
2019-04-21T21:04:06.426Z,5.80
2019-04-21T21:06:39.086Z,5.00
2019-04-21T21:09:11.714Z,5.72
2019-04-21T21:11:46.480Z,5.70
2019-04-21T21:14:16.156Z,6.70
2019-04-21T21:16:47.207Z,6.28
2019-04-21T21:21:44.485Z,5.28
2019-04-21T21:24:15.092Z,5.85
2019-04-21T21:26:49.859Z,6.92
2019-04-21T21:29:20.775Z,5.62
2019-04-21T21:31:50.675Z,5.67
2019-04-21T21:34:23.121Z,5.35
2019-04-21T21:36:51.148Z,5.37
2019-04-21T21:39:21.334Z,6.30
2019-04-21T21:41:44.324Z,5.78
2019-04-21T21:44:14.462Z,6.03
2019-04-21T21:46:48.685Z,6.20
2019-04-21T21:49:27.982Z,5.25
2019-04-21T21:51:52.900Z,4.78
2019-04-21T21:54:11.737Z,5.75
2019-04-21T21:56:43.017Z,4.75
2019-04-21T21:59:20.161Z,4.97
2019-04-21T22:01:48.667Z,5.30
2019-04-21T22:04:20.794Z,5.28
2019-04-21T22:06:53.772Z,5.83
2019-04-21T22:09:16.618Z,5.72
2019-04-21T22:11:48.617Z,5.45
2019-04-21T22:14:22.865Z,6.28
2019-04-21T22:17:06.821Z,6.37
2019-04-21T22:19:35.145Z,6.20
2019-04-21T22:22:07.680Z,6.40
2019-04-21T22:24:34.902Z,6.05
2019-04-21T22:26:52.411Z,6.35
2019-04-21T22:29:23.405Z,5.97
2019-04-21T22:32:00.175Z,6.10
2019-04-21T22:34:30.223Z,6.55
2019-04-21T22:37:07.174Z,6.37
2019-04-21T22:39:44.614Z,6.10
2019-04-21T22:42:05.560Z,6.28
2019-04-21T22:44:28.073Z,5.70
2019-04-21T22:47:06.170Z,6.00
2019-04-21T22:49:28.587Z,6.28
2019-04-21T22:52:03.971Z,5.85
2019-04-21T22:54:34.321Z,6.50
2019-04-21T22:57:07.338Z,6.28
2019-04-21T22:59:31.979Z,6.58
2019-04-21T23:02:06.451Z,7.05
2019-04-21T23:04:41.817Z,6.55
2019-04-21T23:07:10.226Z,6.95
2019-04-21T23:09:37.167Z,5.65
2019-04-21T23:12:07.923Z,7.00
2019-04-21T23:14:45.367Z,7.62
2019-04-21T23:17:29.214Z,6.90
2019-04-21T23:20:03.911Z,6.42
2019-04-21T23:22:21.415Z,6.12
2019-04-21T23:25:03.798Z,6.08
2019-04-21T23:27:23.801Z,6.40
2019-04-21T23:30:07.786Z,5.97
2019-04-21T23:32:25.921Z,6.97
2019-04-21T23:34:45.326Z,6.22
2019-04-21T23:37:19.856Z,5.92
2019-04-21T23:39:45.544Z,5.83
2019-04-21T23:42:22.569Z,5.37
2019-04-21T23:44:50.092Z,5.42
2019-04-21T23:47:29.257Z,6.08
2019-04-21T23:49:57.660Z,5.40
2019-04-21T23:52:18.341Z,5.65
2019-04-21T23:54:49.298Z,6.40
2019-04-21T23:57:29.827Z,5.45
2019-04-21T23:59:55.121Z,4.90
